Time;durP1;ratioP1;P1;durP2;ratioP2;P2;SDS_P1;SDS_P2;PMS_P1;PMS_P2;Temp;Humidity;BMP_temperature;BMP_pressure;BME280_temperature;BME280_humidity;BME280_pressure;Samples;Min_cycle;Max_cycle;Signal;HPM_P1;HPM_P2
2021/10/24 00:00:32;;;;;;;8.80;5.50;;;;;;;;;;5054151;28;20429;-65
2021/10/24 00:02:58;;;;;;;6.07;5.30;;;;;;;;;;5054509;28;20453;-66
2021/10/24 00:05:24;;;;;;;9.03;5.47;;;;;;;;;;5054241;28;20395;-65
2021/10/24 00:07:50;;;;;;;8.20;5.70;;;;;;;;;;5054413;28;20398;-65
2021/10/24 00:10:16;;;;;;;10.90;5.37;;;;;;;;;;5054064;28;20797;-65
2021/10/24 00:12:42;;;;;;;8.90;5.17;;;;;;;;;;5036127;28;20894;-65
2021/10/24 00:15:09;;;;;;;9.10;5.00;;;;;;;;;;5054183;28;20483;-65
2021/10/24 00:17:35;;;;;;;7.10;5.27;;;;;;;;;;5054147;28;20425;-65
2021/10/24 00:20:01;;;;;;;8.40;5.60;;;;;;;;;;5053844;28;20424;-65
2021/10/24 00:22:27;;;;;;;8.13;4.83;;;;;;;;;;5054028;28;20820;-65
2021/10/24 00:24:53;;;;;;;9.60;5.70;;;;;;;;;;5054171;28;20905;-65
2021/10/24 00:27:19;;;;;;;9.00;5.40;;;;;;;;;;5053771;28;20878;-65
2021/10/24 00:29:45;;;;;;;7.70;5.10;;;;;;;;;;5053497;28;20493;-65
2021/10/24 00:32:11;;;;;;;9.90;6.73;;;;;;;;;;5053873;28;20397;-65
2021/10/24 00:34:40;;;;;;;9.73;6.03;;;;;;;;;;5053709;28;20417;-65
2021/10/24 00:37:06;;;;;;;12.43;5.17;;;;;;;;;;5053590;28;20883;-65
2021/10/24 00:39:32;;;;;;;8.90;5.50;;;;;;;;;;5053468;28;20539;-65
2021/10/24 00:41:58;;;;;;;6.80;5.30;;;;;;;;;;5054133;28;20997;-65
2021/10/24 00:44:28;;;;;;;9.90;5.33;;;;;;;;;;5052833;28;20453;-65
2021/10/24 00:46:55;;;;;;;12.47;5.30;;;;;;;;;;5053555;28;20398;-65
2021/10/24 00:49:22;;;;;;;11.93;4.73;;;;;;;;;;5053337;28;20399;-65
2021/10/24 00:51:48;;;;;;;9.40;6.50;;;;;;;;;;5053653;28;20459;-65
2021/10/24 00:54:15;;;;;;;7.90;5.07;;;;;;;;;;5053465;28;20402;-65
2021/10/24 00:56:44;;;;;;;7.03;4.50;;;;;;;;;;5053595;28;20762;-65
2021/10/24 00:59:10;;;;;;;7.37;5.07;;;;;;;;;;5053265;28;20497;-65
2021/10/24 01:01:36;;;;;;;8.47;5.07;;;;;;;;;;5053299;28;20398;-65
2021/10/24 01:04:03;;;;;;;7.10;4.83;;;;;;;;;;5053202;28;20450;-65
2021/10/24 01:06:30;;;;;;;4.90;4.20;;;;;;;;;;5053101;28;20394;-65
2021/10/24 01:08:56;;;;;;;13.10;4.90;;;;;;;;;;5053155;28;20398;-65
2021/10/24 01:11:23;;;;;;;11.13;5.10;;;;;;;;;;5053073;28;20414;-65
2021/10/24 01:13:49;;;;;;;11.33;6.20;;;;;;;;;;5053306;28;20405;-65
2021/10/24 01:16:16;;;;;;;8.10;5.30;;;;;;;;;;5053044;28;20445;-65
2021/10/24 01:18:42;;;;;;;6.17;4.87;;;;;;;;;;5052979;28;20402;-65
2021/10/24 01:21:08;;;;;;;6.10;4.30;;;;;;;;;;5052919;28;20508;-64
2021/10/24 01:23:34;;;;;;;6.53;4.23;;;;;;;;;;5053138;28;20449;-66
2021/10/24 01:26:01;;;;;;;6.60;4.00;;;;;;;;;;5053441;28;20403;-66
2021/10/24 01:28:27;;;;;;;15.50;4.73;;;;;;;;;;5053208;28;20402;-65
2021/10/24 01:30:54;;;;;;;6.20;4.63;;;;;;;;;;5052761;28;20438;-66
2021/10/24 01:33:21;;;;;;;11.93;4.60;;;;;;;;;;5052797;28;20406;-66
2021/10/24 01:35:51;;;;;;;7.20;4.80;;;;;;;;;;5053328;28;20417;-65
2021/10/24 01:38:17;;;;;;;12.07;5.63;;;;;;;;;;5052771;28;20414;-66
2021/10/24 01:40:44;;;;;;;12.43;5.93;;;;;;;;;;5053016;28;20430;-66
2021/10/24 01:43:10;;;;;;;8.17;4.90;;;;;;;;;;5051649;28;20860;-66
2021/10/24 01:45:36;;;;;;;8.87;5.40;;;;;;;;;;5052659;28;20780;-66
2021/10/24 01:48:02;;;;;;;8.30;4.80;;;;;;;;;;5034899;28;20410;-66
2021/10/24 01:50:28;;;;;;;7.40;4.70;;;;;;;;;;5052629;28;20422;-65
2021/10/24 01:52:54;;;;;;;8.53;4.53;;;;;;;;;;5052844;28;20775;-66
2021/10/24 01:55:21;;;;;;;13.20;5.10;;;;;;;;;;5053713;28;20397;-66
2021/10/24 01:57:48;;;;;;;7.63;5.00;;;;;;;;;;5056610;28;20410;-66
2021/10/24 02:00:15;;;;;;;7.00;4.53;;;;;;;;;;5038938;28;20478;-66
2021/10/24 02:02:41;;;;;;;7.47;4.80;;;;;;;;;;5056512;28;20417;-66
2021/10/24 02:05:08;;;;;;;6.80;4.40;;;;;;;;;;5056848;28;20759;-66
2021/10/24 02:07:34;;;;;;;7.60;5.40;;;;;;;;;;5056911;28;20539;-66
2021/10/24 02:10:00;;;;;;;8.73;5.23;;;;;;;;;;5056376;28;20422;-65
2021/10/24 02:12:27;;;;;;;6.77;4.80;;;;;;;;;;5056668;28;20402;-65
2021/10/24 02:14:53;;;;;;;8.50;4.70;;;;;;;;;;5056330;28;20410;-65
2021/10/24 02:17:19;;;;;;;7.63;5.40;;;;;;;;;;5056325;28;20895;-65
2021/10/24 02:19:45;;;;;;;6.13;5.23;;;;;;;;;;5056045;28;20960;-65
2021/10/24 02:22:11;;;;;;;7.07;4.97;;;;;;;;;;5056381;28;20405;-65
2021/10/24 02:24:37;;;;;;;7.43;5.37;;;;;;;;;;5056384;28;20446;-65
2021/10/24 02:27:04;;;;;;;8.40;5.50;;;;;;;;;;5056223;28;20401;-66
2021/10/24 02:29:30;;;;;;;14.23;6.47;;;;;;;;;;5062114;28;20436;-66
2021/10/24 02:31:56;;;;;;;9.30;6.47;;;;;;;;;;5062080;28;20738;-65
2021/10/24 02:34:22;;;;;;;6.63;5.33;;;;;;;;;;5055829;28;20898;-65
2021/10/24 02:36:48;;;;;;;7.60;5.93;;;;;;;;;;5055795;28;20905;-66
2021/10/24 02:39:14;;;;;;;7.13;5.60;;;;;;;;;;5055697;28;20490;-66
2021/10/24 02:41:40;;;;;;;12.10;6.43;;;;;;;;;;5055764;28;20521;-65
2021/10/24 02:44:06;;;;;;;7.27;6.10;;;;;;;;;;5055584;28;20445;-66
2021/10/24 02:46:32;;;;;;;10.53;6.33;;;;;;;;;;5037816;28;20414;-65
2021/10/24 02:48:58;;;;;;;7.90;5.30;;;;;;;;;;5055633;28;20444;-65
2021/10/24 02:51:24;;;;;;;10.43;6.60;;;;;;;;;;5055628;28;20468;-65
2021/10/24 02:53:50;;;;;;;8.33;5.80;;;;;;;;;;5055618;28;20459;-65
2021/10/24 02:56:16;;;;;;;9.43;6.00;;;;;;;;;;5056126;28;20432;-65
2021/10/24 02:58:42;;;;;;;8.30;6.37;;;;;;;;;;5055479;28;20434;-65
2021/10/24 03:01:08;;;;;;;9.23;6.83;;;;;;;;;;5055494;28;20422;-65
2021/10/24 03:03:34;;;;;;;13.20;6.83;;;;;;;;;;5055381;28;20445;-65
2021/10/24 03:06:00;;;;;;;10.50;6.40;;;;;;;;;;5055244;28;20405;-66
2021/10/24 03:08:26;;;;;;;8.37;6.17;;;;;;;;;;5054459;28;20443;-65
2021/10/24 03:10:52;;;;;;;9.23;6.40;;;;;;;;;;5037758;28;20460;-65
2021/10/24 03:13:19;;;;;;;8.80;6.03;;;;;;;;;;5055039;28;20426;-66
2021/10/24 03:15:46;;;;;;;7.97;6.60;;;;;;;;;;5063479;28;20431;-65
2021/10/24 03:18:12;;;;;;;8.37;6.17;;;;;;;;;;5075120;28;20888;-65
2021/10/24 03:20:38;;;;;;;10.63;7.00;;;;;;;;;;5075008;28;20421;-65
2021/10/24 03:23:04;;;;;;;9.73;7.47;;;;;;;;;;5075007;28;20547;-65
2021/10/24 03:25:30;;;;;;;9.63;6.60;;;;;;;;;;5075100;28;20486;-65
2021/10/24 03:27:56;;;;;;;13.13;7.43;;;;;;;;;;5075212;28;20401;-65
2021/10/24 03:30:22;;;;;;;11.10;7.40;;;;;;;;;;5075182;28;20535;-65
2021/10/24 03:32:48;;;;;;;11.20;7.20;;;;;;;;;;5074529;28;20450;-65
2021/10/24 03:35:14;;;;;;;8.60;7.17;;;;;;;;;;5075142;28;20459;-66
2021/10/24 03:37:40;;;;;;;15.73;8.50;;;;;;;;;;5074659;28;20394;-65
2021/10/24 03:40:07;;;;;;;10.37;7.40;;;;;;;;;;5074555;28;20492;-65
2021/10/24 03:42:33;;;;;;;8.53;6.90;;;;;;;;;;5074873;28;20893;-65
2021/10/24 03:44:59;;;;;;;14.70;7.07;;;;;;;;;;5074777;28;20932;-65
2021/10/24 03:47:25;;;;;;;13.63;7.03;;;;;;;;;;5074593;28;20941;-65
2021/10/24 03:49:51;;;;;;;10.23;7.20;;;;;;;;;;5074691;28;20420;-65
2021/10/24 03:52:17;;;;;;;11.03;7.80;;;;;;;;;;5074471;28;20429;-65
2021/10/24 03:54:43;;;;;;;9.40;7.17;;;;;;;;;;5074469;28;20404;-65
2021/10/24 03:57:09;;;;;;;10.23;7.10;;;;;;;;;;5063754;28;20480;-65
2021/10/24 03:59:35;;;;;;;9.00;7.13;;;;;;;;;;5054023;28;20421;-66
2021/10/24 04:02:01;;;;;;;11.50;6.97;;;;;;;;;;5054510;28;20408;-66
2021/10/24 04:04:27;;;;;;;11.60;7.30;;;;;;;;;;5036391;28;20454;-66
2021/10/24 04:06:53;;;;;;;10.40;7.87;;;;;;;;;;5054155;28;20475;-66
2021/10/24 04:09:20;;;;;;;10.10;6.93;;;;;;;;;;5054209;28;20821;-66
2021/10/24 04:11:46;;;;;;;9.33;7.87;;;;;;;;;;5054093;28;20413;-66
2021/10/24 04:14:12;;;;;;;11.73;7.13;;;;;;;;;;5054269;28;20770;-66
2021/10/24 04:16:38;;;;;;;12.60;7.27;;;;;;;;;;5054421;28;20410;-66
2021/10/24 04:19:04;;;;;;;11.63;7.87;;;;;;;;;;5053077;28;20413;-66
2021/10/24 04:21:30;;;;;;;12.27;7.33;;;;;;;;;;5054046;28;20406;-65
2021/10/24 04:23:56;;;;;;;12.30;8.00;;;;;;;;;;5054185;28;20519;-66
2021/10/24 04:26:22;;;;;;;17.30;8.30;;;;;;;;;;5054258;28;20860;-66
2021/10/24 04:28:48;;;;;;;12.73;7.17;;;;;;;;;;5054041;28;20743;-66
2021/10/24 04:31:14;;;;;;;9.73;6.70;;;;;;;;;;5053698;28;20907;-65
2021/10/24 04:33:40;;;;;;;9.67;7.30;;;;;;;;;;5057421;28;20414;-66
2021/10/24 04:36:06;;;;;;;9.97;8.33;;;;;;;;;;5053945;28;20822;-66
2021/10/24 04:38:32;;;;;;;8.90;7.27;;;;;;;;;;5053672;28;20421;-65
2021/10/24 04:40:59;;;;;;;8.23;6.57;;;;;;;;;;5054211;28;20501;-65
2021/10/24 04:43:25;;;;;;;12.53;8.20;;;;;;;;;;5054211;28;20869;-65
2021/10/24 04:45:51;;;;;;;11.10;8.10;;;;;;;;;;5053898;28;20403;-65
2021/10/24 04:48:17;;;;;;;10.30;8.60;;;;;;;;;;5053798;28;20413;-66
2021/10/24 04:50:44;;;;;;;13.70;7.10;;;;;;;;;;5053794;28;20792;-65
2021/10/24 04:53:10;;;;;;;9.33;6.77;;;;;;;;;;5036321;28;20463;-66
2021/10/24 04:55:36;;;;;;;10.60;7.60;;;;;;;;;;5053615;28;20417;-65
2021/10/24 04:58:02;;;;;;;9.30;7.60;;;;;;;;;;5068080;28;20416;-65
2021/10/24 05:00:28;;;;;;;11.83;7.70;;;;;;;;;;5073263;28;20519;-66
2021/10/24 05:02:54;;;;;;;12.73;8.37;;;;;;;;;;5073386;28;20771;-65
2021/10/24 05:05:21;;;;;;;8.73;7.43;;;;;;;;;;5073739;28;20397;-65
2021/10/24 05:07:47;;;;;;;14.37;7.33;;;;;;;;;;5073393;28;20393;-66
2021/10/24 05:10:13;;;;;;;11.43;8.53;;;;;;;;;;5073728;28;20426;-66
2021/10/24 05:12:39;;;;;;;11.33;7.83;;;;;;;;;;5074961;28;20408;-66
2021/10/24 05:15:05;;;;;;;13.23;9.37;;;;;;;;;;5073337;28;20405;-66
2021/10/24 05:17:31;;;;;;;14.20;7.33;;;;;;;;;;5073346;28;20404;-66
2021/10/24 05:19:57;;;;;;;11.13;7.50;;;;;;;;;;5073494;28;20425;-66
2021/10/24 05:22:24;;;;;;;9.40;7.87;;;;;;;;;;5073173;28;20412;-66
2021/10/24 05:24:50;;;;;;;11.17;7.87;;;;;;;;;;5073380;28;20459;-66
2021/10/24 05:27:16;;;;;;;13.23;8.90;;;;;;;;;;5073234;28;20401;-66
2021/10/24 05:29:42;;;;;;;13.60;8.57;;;;;;;;;;5073313;28;20460;-66
2021/10/24 05:32:08;;;;;;;11.70;8.60;;;;;;;;;;5077272;28;20487;-66
2021/10/24 05:34:35;;;;;;;10.90;8.33;;;;;;;;;;5077406;28;20409;-66
2021/10/24 05:37:01;;;;;;;12.77;9.27;;;;;;;;;;5077777;28;20428;-66
2021/10/24 05:39:27;;;;;;;12.23;8.53;;;;;;;;;;5077287;28;20428;-66
2021/10/24 05:41:53;;;;;;;12.47;8.60;;;;;;;;;;5059360;28;20885;-66
2021/10/24 05:44:19;;;;;;;12.33;8.30;;;;;;;;;;5077420;28;20842;-65
2021/10/24 05:46:46;;;;;;;12.13;8.53;;;;;;;;;;5077325;28;20475;-66
2021/10/24 05:49:14;;;;;;;12.37;9.03;;;;;;;;;;5077193;28;20799;-66
2021/10/24 05:51:40;;;;;;;13.40;8.70;;;;;;;;;;5077274;28;20408;-66
2021/10/24 05:54:07;;;;;;;14.73;8.20;;;;;;;;;;5077117;28;20397;-66
2021/10/24 05:56:33;;;;;;;13.40;9.10;;;;;;;;;;5076717;28;20915;-66
2021/10/24 05:58:59;;;;;;;13.80;9.43;;;;;;;;;;5076957;28;20436;-66
2021/10/24 06:01:26;;;;;;;18.10;10.30;;;;;;;;;;5076611;28;20433;-65
2021/10/24 06:03:53;;;;;;;13.17;8.60;;;;;;;;;;5076904;28;20463;-64
2021/10/24 06:06:19;;;;;;;11.13;8.73;;;;;;;;;;5077260;28;20477;-65
2021/10/24 06:08:45;;;;;;;14.27;9.10;;;;;;;;;;5077038;28;20909;-65
2021/10/24 06:11:19;;;;;;;12.43;11.13;;;;;;;;;;5058714;28;20454;-65
2021/10/24 06:13:47;;;;;;;10.03;8.43;;;;;;;;;;5076767;28;20423;-64
2021/10/24 06:16:13;;;;;;;11.80;7.00;;;;;;;;;;5076804;28;20401;-64
2021/10/24 06:18:39;;;;;;;11.87;8.63;;;;;;;;;;5076717;28;20398;-65
2021/10/24 06:21:06;;;;;;;12.93;9.53;;;;;;;;;;5076648;28;20940;-64
2021/10/24 06:23:32;;;;;;;10.10;7.90;;;;;;;;;;5076614;28;20451;-64
2021/10/24 06:25:58;;;;;;;12.20;8.07;;;;;;;;;;5076339;28;20408;-66
2021/10/24 06:28:24;;;;;;;11.30;7.57;;;;;;;;;;5058418;28;20413;-66
2021/10/24 06:30:51;;;;;;;12.40;8.60;;;;;;;;;;5076007;28;20601;-66
2021/10/24 06:33:17;;;;;;;11.97;8.60;;;;;;;;;;5076163;28;20908;-66
2021/10/24 06:35:45;;;;;;;15.07;9.27;;;;;;;;;;5076164;28;20496;-66
2021/10/24 06:38:11;;;;;;;13.43;7.83;;;;;;;;;;5076247;28;20411;-66
2021/10/24 06:40:37;;;;;;;10.27;7.97;;;;;;;;;;5075881;28;20425;-66
2021/10/24 06:43:03;;;;;;;10.10;8.07;;;;;;;;;;5074781;28;20452;-65
2021/10/24 06:45:31;;;;;;;10.40;8.00;;;;;;;;;;5075866;28;20436;-66
2021/10/24 06:47:57;;;;;;;14.13;8.70;;;;;;;;;;5075763;28;20404;-66
2021/10/24 06:50:23;;;;;;;11.03;8.10;;;;;;;;;;5075699;28;20420;-65
2021/10/24 06:52:49;;;;;;;11.40;7.70;;;;;;;;;;5076010;28;20847;-66
2021/10/24 06:55:16;;;;;;;8.60;6.93;;;;;;;;;;5075995;28;20401;-66
2021/10/24 06:57:46;;;;;;;12.20;8.60;;;;;;;;;;5075604;28;20409;-66
2021/10/24 07:00:13;;;;;;;10.80;8.10;;;;;;;;;;5075282;28;20796;-66
2021/10/24 07:02:39;;;;;;;8.27;6.97;;;;;;;;;;5075630;28;20932;-66
2021/10/24 07:05:05;;;;;;;9.63;7.87;;;;;;;;;;5075415;28;20529;-66
2021/10/24 07:07:31;;;;;;;10.50;7.43;;;;;;;;;;5075336;28;20901;-66
2021/10/24 07:09:57;;;;;;;9.93;6.93;;;;;;;;;;5075344;28;20417;-66
2021/10/24 07:12:23;;;;;;;12.90;7.30;;;;;;;;;;5075371;28;20405;-66
2021/10/24 07:14:49;;;;;;;10.90;8.17;;;;;;;;;;5075508;28;20409;-66
2021/10/24 07:17:15;;;;;;;7.33;5.87;;;;;;;;;;5075518;28;20504;-66
2021/10/24 07:19:42;;;;;;;11.13;6.53;;;;;;;;;;5075218;28;20949;-65
2021/10/24 07:22:08;;;;;;;10.23;6.90;;;;;;;;;;5073902;28;20503;-67
2021/10/24 07:24:34;;;;;;;11.70;8.57;;;;;;;;;;5074010;28;20490;-65
2021/10/24 07:27:00;;;;;;;11.10;6.67;;;;;;;;;;5074969;28;20392;-65
2021/10/24 07:29:26;;;;;;;7.30;6.53;;;;;;;;;;5074379;28;20498;-65
2021/10/24 07:31:52;;;;;;;9.00;7.17;;;;;;;;;;5075623;28;20462;-67
2021/10/24 07:34:19;;;;;;;7.83;6.27;;;;;;;;;;5075008;28;20415;-67
2021/10/24 07:36:45;;;;;;;12.63;6.40;;;;;;;;;;5076499;28;20405;-68
2021/10/24 07:39:11;;;;;;;9.70;6.47;;;;;;;;;;5076177;28;20404;-67
2021/10/24 07:41:37;;;;;;;9.03;6.83;;;;;;;;;;5075905;28;20421;-67
2021/10/24 07:44:06;;;;;;;7.17;5.87;;;;;;;;;;5074658;28;20444;-67
2021/10/24 07:46:32;;;;;;;8.63;6.53;;;;;;;;;;5074600;28;20420;-69
2021/10/24 07:48:58;;;;;;;6.63;5.40;;;;;;;;;;5074843;28;20405;-67
2021/10/24 07:51:24;;;;;;;7.20;6.10;;;;;;;;;;5074334;28;20460;-68
2021/10/24 07:53:52;;;;;;;7.50;6.10;;;;;;;;;;5074662;28;20421;-68
2021/10/24 07:56:18;;;;;;;6.33;5.43;;;;;;;;;;5074709;28;20462;-67
2021/10/24 07:58:44;;;;;;;7.57;5.40;;;;;;;;;;5074850;28;20401;-68
2021/10/24 08:01:11;;;;;;;9.27;6.23;;;;;;;;;;5073712;28;20440;-71
2021/10/24 08:03:37;;;;;;;7.80;6.00;;;;;;;;;;5074460;28;20453;-66
2021/10/24 08:06:03;;;;;;;9.80;5.63;;;;;;;;;;5054492;28;20405;-67
2021/10/24 08:08:29;;;;;;;8.00;5.20;;;;;;;;;;5073481;28;20491;-67
2021/10/24 08:10:55;;;;;;;5.80;5.10;;;;;;;;;;5073966;28;20475;-67
2021/10/24 08:13:21;;;;;;;8.20;5.27;;;;;;;;;;5073977;28;20894;-67
2021/10/24 08:15:48;;;;;;;6.40;4.93;;;;;;;;;;5074093;28;20930;-66
2021/10/24 08:18:14;;;;;;;5.50;4.60;;;;;;;;;;5074032;28;20442;-67
2021/10/24 08:20:41;;;;;;;6.43;4.43;;;;;;;;;;5073669;28;20428;-67
2021/10/24 08:23:07;;;;;;;5.73;4.20;;;;;;;;;;5055260;28;20829;-65
2021/10/24 08:25:33;;;;;;;6.63;4.63;;;;;;;;;;5073769;28;20409;-64
2021/10/24 08:28:01;;;;;;;8.67;5.57;;;;;;;;;;5073716;28;20492;-64
2021/10/24 08:30:27;;;;;;;5.57;4.40;;;;;;;;;;5073737;28;20479;-64
2021/10/24 08:32:54;;;;;;;8.17;5.00;;;;;;;;;;5061264;28;20414;-65
2021/10/24 08:35:20;;;;;;;6.53;4.63;;;;;;;;;;5058117;28;20909;-64
2021/10/24 08:37:48;;;;;;;7.57;4.43;;;;;;;;;;5073785;28;20412;-65
2021/10/24 08:40:14;;;;;;;6.90;4.30;;;;;;;;;;5071368;28;20464;-65
2021/10/24 08:42:41;;;;;;;6.53;4.33;;;;;;;;;;5073663;28;20496;-65
2021/10/24 08:45:10;;;;;;;8.27;4.70;;;;;;;;;;5073646;28;20499;-65
2021/10/24 08:47:36;;;;;;;5.50;4.20;;;;;;;;;;5073290;28;20756;-65
2021/10/24 08:50:02;;;;;;;5.33;4.10;;;;;;;;;;5073821;28;20431;-65
2021/10/24 08:52:28;;;;;;;7.90;4.70;;;;;;;;;;5073011;28;20416;-65
2021/10/24 08:54:55;;;;;;;7.30;5.00;;;;;;;;;;5072991;28;20814;-65
2021/10/24 08:57:22;;;;;;;5.53;3.87;;;;;;;;;;5073004;28;20471;-65
2021/10/24 08:59:48;;;;;;;9.40;5.23;;;;;;;;;;5073528;28;20420;-66
2021/10/24 09:02:14;;;;;;;5.43;4.00;;;;;;;;;;5068979;28;20485;-64
2021/10/24 09:04:53;;;;;;;4.90;4.40;;;;;;;;;;5071697;28;20448;-65
2021/10/24 09:07:20;;;;;;;5.03;4.13;;;;;;;;;;5053467;28;20936;-64
2021/10/24 09:09:46;;;;;;;6.10;3.87;;;;;;;;;;5053372;28;20913;-63
2021/10/24 09:12:14;;;;;;;6.13;4.40;;;;;;;;;;5053313;28;20547;-65
2021/10/24 09:14:45;;;;;;;6.43;4.00;;;;;;;;;;5053211;28;20455;-65
2021/10/24 09:17:25;;;;;;;5.47;3.87;;;;;;;;;;5053232;28;20997;-65
2021/10/24 09:19:52;;;;;;;6.40;4.20;;;;;;;;;;5053432;28;20799;-66
2021/10/24 09:22:20;;;;;;;8.73;4.60;;;;;;;;;;5053422;28;20398;-65
2021/10/24 09:25:06;;;;;;;6.33;4.43;;;;;;;;;;5053043;28;20455;-66
2021/10/24 09:27:34;;;;;;;4.47;3.60;;;;;;;;;;5052969;28;20886;-65
2021/10/24 09:30:08;;;;;;;5.90;3.73;;;;;;;;;;5053347;28;20471;-65
2021/10/24 09:32:46;;;;;;;6.93;4.20;;;;;;;;;;5052953;28;20420;-65
2021/10/24 09:35:12;;;;;;;6.10;4.33;;;;;;;;;;5052995;28;20397;-64
2021/10/24 09:37:45;;;;;;;4.67;3.63;;;;;;;;;;5052996;28;20410;-66
2021/10/24 09:40:11;;;;;;;5.67;4.40;;;;;;;;;;5052811;28;20992;-65
2021/10/24 09:42:37;;;;;;;4.87;4.07;;;;;;;;;;5053032;28;20827;-65
2021/10/24 09:45:13;;;;;;;5.70;3.60;;;;;;;;;;5052794;28;20445;-65
2021/10/24 09:47:41;;;;;;;9.20;3.73;;;;;;;;;;5052835;28;20405;-65
2021/10/24 09:50:08;;;;;;;6.00;3.87;;;;;;;;;;5052832;28;20413;-66
2021/10/24 09:52:34;;;;;;;5.97;4.33;;;;;;;;;;5053019;28;20417;-65
2021/10/24 09:55:01;;;;;;;4.63;3.33;;;;;;;;;;5052721;28;20398;-66
2021/10/24 09:57:28;;;;;;;5.13;3.70;;;;;;;;;;5052616;28;20472;-64
2021/10/24 09:59:54;;;;;;;6.77;4.10;;;;;;;;;;5052701;28;20429;-64
2021/10/24 10:02:21;;;;;;;4.70;3.47;;;;;;;;;;5052472;28;21044;-64
2021/10/24 10:04:47;;;;;;;7.93;4.23;;;;;;;;;;5052841;28;20502;-66
2021/10/24 10:07:17;;;;;;;4.60;3.80;;;;;;;;;;5052564;28;20746;-64
2021/10/24 10:09:44;;;;;;;3.93;3.53;;;;;;;;;;5053081;28;20429;-64
2021/10/24 10:12:12;;;;;;;4.83;3.57;;;;;;;;;;5052481;28;20905;-64
2021/10/24 10:14:40;;;;;;;4.30;3.53;;;;;;;;;;5052784;28;20432;-64
2021/10/24 10:17:11;;;;;;;7.27;3.73;;;;;;;;;;5054492;28;20401;-64
2021/10/24 10:19:38;;;;;;;4.33;2.90;;;;;;;;;;5056618;28;20513;-65
2021/10/24 10:22:23;;;;;;;4.93;3.20;;;;;;;;;;5057076;28;20441;-64
2021/10/24 10:24:54;;;;;;;4.30;3.07;;;;;;;;;;5056998;28;20453;-66
2021/10/24 10:27:35;;;;;;;5.57;3.20;;;;;;;;;;5057024;28;20413;-66
2021/10/24 10:30:06;;;;;;;6.73;3.40;;;;;;;;;;5055897;28;21019;-66
2021/10/24 10:32:39;;;;;;;8.23;3.77;;;;;;;;;;5064136;28;20410;-67
2021/10/24 10:35:11;;;;;;;5.23;3.40;;;;;;;;;;5056348;28;20459;-66
2021/10/24 10:37:44;;;;;;;3.27;2.77;;;;;;;;;;5056354;28;20406;-64
2021/10/24 10:40:34;;;;;;;4.97;3.37;;;;;;;;;;5055954;28;20512;-64
2021/10/24 10:43:00;;;;;;;3.27;2.53;;;;;;;;;;5048234;28;20433;-64
2021/10/24 10:45:27;;;;;;;4.50;3.00;;;;;;;;;;5056168;28;20402;-65
2021/10/24 10:47:57;;;;;;;4.37;3.20;;;;;;;;;;5055902;28;20958;-65
2021/10/24 10:50:29;;;;;;;3.93;3.10;;;;;;;;;;5056166;28;20413;-65
2021/10/24 10:52:56;;;;;;;5.67;3.03;;;;;;;;;;5056013;28;20766;-65
2021/10/24 10:55:22;;;;;;;3.67;2.77;;;;;;;;;;5055848;28;20738;-64
2021/10/24 10:57:49;;;;;;;3.90;2.90;;;;;;;;;;5055802;28;20499;-64
2021/10/24 11:00:33;;;;;;;3.47;2.47;;;;;;;;;;5055847;28;20786;-65
2021/10/24 11:02:59;;;;;;;5.10;2.70;;;;;;;;;;5065986;28;20401;-66
2021/10/24 11:05:35;;;;;;;3.40;2.47;;;;;;;;;;5075680;28;20764;-65
2021/10/24 11:08:01;;;;;;;3.10;2.20;;;;;;;;;;5057457;28;20439;-65
2021/10/24 11:10:44;;;;;;;5.23;2.43;;;;;;;;;;5075631;28;20516;-65
2021/10/24 11:13:43;;;;;;;4.80;2.57;;;;;;;;;;5057311;28;20405;-66
2021/10/24 11:16:29;;;;;;;7.73;3.77;;;;;;;;;;5041898;28;20405;-66
2021/10/24 11:18:55;;;;;;;3.43;2.23;;;;;;;;;;5065125;28;20774;-66
2021/10/24 11:21:28;;;;;;;7.10;2.40;;;;;;;;;;5057306;28;20451;-66
2021/10/24 11:23:58;;;;;;;4.57;2.50;;;;;;;;;;5075350;28;20472;-66
2021/10/24 11:26:25;;;;;;;2.73;2.30;;;;;;;;;;5075166;28;20883;-66
2021/10/24 11:28:51;;;;;;;4.40;2.67;;;;;;;;;;5074609;28;20393;-66
2021/10/24 11:31:21;;;;;;;8.47;3.27;;;;;;;;;;5074401;28;20856;-66
2021/10/24 11:33:48;;;;;;;4.40;3.00;;;;;;;;;;5055439;28;20398;-66
2021/10/24 11:36:21;;;;;;;4.70;2.80;;;;;;;;;;5055199;28;20687;-66
2021/10/24 11:38:47;;;;;;;3.77;2.30;;;;;;;;;;5055245;28;20428;-66
2021/10/24 11:41:23;;;;;;;6.40;3.00;;;;;;;;;;5054866;28;20424;-66
2021/10/24 11:43:50;;;;;;;5.10;3.37;;;;;;;;;;5054780;28;20452;-66
2021/10/24 11:46:17;;;;;;;5.53;2.80;;;;;;;;;;5054734;28;20436;-65
2021/10/24 11:48:43;;;;;;;4.63;3.17;;;;;;;;;;5054826;28;20424;-66
2021/10/24 11:51:10;;;;;;;4.43;2.80;;;;;;;;;;5054838;28;20417;-66
2021/10/24 11:53:37;;;;;;;4.47;3.30;;;;;;;;;;5054910;28;20488;-66
2021/10/24 11:56:11;;;;;;;4.37;3.27;;;;;;;;;;5054513;28;20420;-66
2021/10/24 12:01:18;;;;;;;7.47;3.00;;;;;;;;;;5054687;28;20493;-66
2021/10/24 12:03:52;;;;;;;5.33;2.80;;;;;;;;;;5054334;28;21023;-66
2021/10/24 12:06:18;;;;;;;4.00;2.70;;;;;;;;;;5054669;28;20477;-66
2021/10/24 12:08:51;;;;;;;3.63;2.53;;;;;;;;;;5054368;28;20461;-66
2021/10/24 12:11:41;;;;;;;5.77;3.43;;;;;;;;;;5054399;28;20460;-66
2021/10/24 12:14:08;;;;;;;5.23;3.10;;;;;;;;;;5046472;28;20744;-66
2021/10/24 12:16:37;;;;;;;5.00;2.73;;;;;;;;;;5054281;28;20402;-66
2021/10/24 12:19:19;;;;;;;6.23;3.10;;;;;;;;;;5054351;28;20398;-66
2021/10/24 12:21:55;;;;;;;4.50;3.33;;;;;;;;;;5054161;28;20425;-66
2021/10/24 12:24:23;;;;;;;3.63;2.83;;;;;;;;;;5054191;28;20571;-66
2021/10/24 12:26:49;;;;;;;6.83;2.70;;;;;;;;;;5054117;28;20467;-66
2021/10/24 12:29:17;;;;;;;4.80;2.30;;;;;;;;;;5053747;28;20409;-66
2021/10/24 12:31:44;;;;;;;4.47;2.53;;;;;;;;;;5055209;28;20472;-66
2021/10/24 12:34:11;;;;;;;4.07;2.70;;;;;;;;;;5074126;28;20416;-66
2021/10/24 12:36:39;;;;;;;5.47;2.97;;;;;;;;;;5073962;28;20432;-66
2021/10/24 12:39:06;;;;;;;5.07;3.20;;;;;;;;;;5073853;28;20435;-66
2021/10/24 12:41:35;;;;;;;4.50;3.30;;;;;;;;;;5073208;28;20405;-66
2021/10/24 12:44:18;;;;;;;4.30;2.73;;;;;;;;;;5073724;28;20452;-66
2021/10/24 12:46:44;;;;;;;2.87;2.57;;;;;;;;;;5073799;28;20741;-66
2021/10/24 12:49:13;;;;;;;3.83;3.10;;;;;;;;;;5073732;28;20488;-66
2021/10/24 12:51:40;;;;;;;4.40;2.77;;;;;;;;;;5074141;28;20483;-66
2021/10/24 12:54:08;;;;;;;6.07;2.60;;;;;;;;;;5055532;28;20775;-66
2021/10/24 12:56:34;;;;;;;4.57;2.90;;;;;;;;;;5073533;28;20408;-67
2021/10/24 12:59:01;;;;;;;3.67;2.60;;;;;;;;;;5073501;28;20725;-66
2021/10/24 13:01:32;;;;;;;6.90;3.00;;;;;;;;;;5073660;28;20427;-66
2021/10/24 13:03:59;;;;;;;4.47;3.13;;;;;;;;;;5055309;28;20976;-67
2021/10/24 13:06:26;;;;;;;5.07;3.07;;;;;;;;;;5053496;28;20519;-66
2021/10/24 13:08:52;;;;;;;5.33;2.80;;;;;;;;;;5053504;28;20766;-66
2021/10/24 13:11:20;;;;;;;3.73;2.87;;;;;;;;;;5053626;28;20421;-64
2021/10/24 13:13:46;;;;;;;5.00;3.03;;;;;;;;;;5053503;28;20773;-67
2021/10/24 13:16:12;;;;;;;4.70;2.97;;;;;;;;;;5053226;28;20405;-65
2021/10/24 13:18:38;;;;;;;5.03;2.90;;;;;;;;;;5053156;28;20492;-64
2021/10/24 13:21:07;;;;;;;3.27;2.83;;;;;;;;;;5052910;28;20429;-65
2021/10/24 13:23:33;;;;;;;3.43;2.50;;;;;;;;;;5052999;28;20510;-65
2021/10/24 13:26:00;;;;;;;3.63;2.73;;;;;;;;;;5053109;28;20397;-65
2021/10/24 13:28:26;;;;;;;3.80;2.37;;;;;;;;;;5053681;28;20390;-65
2021/10/24 13:30:52;;;;;;;4.23;2.50;;;;;;;;;;5057014;28;20440;-66
2021/10/24 13:33:19;;;;;;;5.40;2.73;;;;;;;;;;5072863;28;20416;-65
2021/10/24 13:35:45;;;;;;;3.73;2.47;;;;;;;;;;5073017;28;20490;-65
2021/10/24 13:38:11;;;;;;;6.13;3.40;;;;;;;;;;5073147;28;20484;-65
2021/10/24 13:40:37;;;;;;;4.03;2.93;;;;;;;;;;5073369;28;20428;-66
2021/10/24 13:43:04;;;;;;;4.13;3.13;;;;;;;;;;5072883;28;20477;-65
2021/10/24 13:45:31;;;;;;;5.10;3.03;;;;;;;;;;5073140;28;20405;-65
2021/10/24 13:47:58;;;;;;;4.20;3.20;;;;;;;;;;5073074;28;20415;-67
2021/10/24 13:50:24;;;;;;;4.13;3.10;;;;;;;;;;5073099;28;20416;-65
2021/10/24 13:52:50;;;;;;;5.30;3.20;;;;;;;;;;5076252;28;20401;-65
2021/10/24 13:55:18;;;;;;;6.07;3.60;;;;;;;;;;5058994;28;20921;-65
2021/10/24 13:57:44;;;;;;;4.20;3.20;;;;;;;;;;5077236;28;20412;-65
2021/10/24 14:00:10;;;;;;;5.00;3.03;;;;;;;;;;5076745;28;20427;-65
2021/10/24 14:02:36;;;;;;;6.30;4.87;;;;;;;;;;5070743;28;20414;-65
2021/10/24 14:05:05;;;;;;;5.67;3.47;;;;;;;;;;5057321;28;20564;-66
2021/10/24 14:07:34;;;;;;;4.50;3.33;;;;;;;;;;5056763;28;20390;-65
2021/10/24 14:10:00;;;;;;;4.73;3.43;;;;;;;;;;5056454;28;20420;-66
2021/10/24 14:12:26;;;;;;;5.10;3.30;;;;;;;;;;5056432;28;20393;-65
2021/10/24 14:14:53;;;;;;;3.93;3.17;;;;;;;;;;5056425;28;20488;-66
2021/10/24 14:17:19;;;;;;;5.03;3.47;;;;;;;;;;5056378;28;20494;-66
2021/10/24 14:19:45;;;;;;;6.43;4.03;;;;;;;;;;5056540;28;20788;-65
2021/10/24 14:22:11;;;;;;;6.40;3.77;;;;;;;;;;5056276;28;20417;-65
2021/10/24 14:24:38;;;;;;;4.20;3.17;;;;;;;;;;5056094;28;20452;-64
2021/10/24 14:27:04;;;;;;;5.50;4.03;;;;;;;;;;5056425;28;20401;-65
2021/10/24 14:29:30;;;;;;;5.40;3.93;;;;;;;;;;5056069;28;20433;-65
2021/10/24 14:31:57;;;;;;;4.17;3.13;;;;;;;;;;5067754;28;20824;-65
2021/10/24 14:34:24;;;;;;;8.17;3.70;;;;;;;;;;5076184;28;20913;-65
2021/10/24 14:36:50;;;;;;;6.07;3.80;;;;;;;;;;5076345;28;20909;-64
2021/10/24 14:39:16;;;;;;;6.37;3.57;;;;;;;;;;5075769;28;20396;-65
2021/10/24 14:41:42;;;;;;;5.40;3.53;;;;;;;;;;5075924;28;20431;-65